sensor_id;sensor_type;location;lat;lon;timestamp;noise_LAeq;noise_LA_min;noise_LA_max;noise_LA01;noise_LA95
45478;Laerm;31227;47.986;11.868;2023-02-19T00:01:05;38.33;33.90;49.32;;
45478;Laerm;31227;47.986;11.868;2023-02-19T00:03:30;38.43;32.93;53.06;;
45478;Laerm;31227;47.986;11.868;2023-02-19T00:05:55;37.97;32.93;47.84;;
45478;Laerm;31227;47.986;11.868;2023-02-19T00:08:21;38.55;33.44;53.30;;
45478;Laerm;31227;47.986;11.868;2023-02-19T00:10:46;37.67;32.35;43.86;;
45478;Laerm;31227;47.986;11.868;2023-02-19T00:13:11;37.87;32.93;44.11;;
45478;Laerm;31227;47.986;11.868;2023-02-19T00:15:37;37.82;31.68;44.35;;
45478;Laerm;31227;47.986;11.868;2023-02-19T00:18:02;37.59;32.93;44.39;;
45478;Laerm;31227;47.986;11.868;2023-02-19T00:20:27;37.70;32.93;43.04;;
45478;Laerm;31227;47.986;11.868;2023-02-19T00:22:52;37.28;32.93;40.13;;
45478;Laerm;31227;47.986;11.868;2023-02-19T00:25:17;37.32;31.68;40.71;;
45478;Laerm;31227;47.986;11.868;2023-02-19T00:27:43;37.29;32.35;39.92;;
45478;Laerm;31227;47.986;11.868;2023-02-19T00:30:08;38.28;33.90;44.90;;
45478;Laerm;31227;47.986;11.868;2023-02-19T00:32:33;37.46;32.35;42.16;;
45478;Laerm;31227;47.986;11.868;2023-02-19T00:34:59;38.07;33.44;44.59;;
45478;Laerm;31227;47.986;11.868;2023-02-19T00:37:24;37.84;33.44;44.31;;
45478;Laerm;31227;47.986;11.868;2023-02-19T00:39:49;38.01;32.35;47.86;;
45478;Laerm;31227;47.986;11.868;2023-02-19T00:42:14;37.61;29.92;46.30;;
45478;Laerm;31227;47.986;11.868;2023-02-19T00:44:40;37.88;32.35;43.72;;
45478;Laerm;31227;47.986;11.868;2023-02-19T00:47:05;37.41;33.44;41.68;;
45478;Laerm;31227;47.986;11.868;2023-02-19T00:49:30;37.70;32.93;43.94;;
45478;Laerm;31227;47.986;11.868;2023-02-19T00:51:55;37.76;32.35;45.20;;
45478;Laerm;31227;47.986;11.868;2023-02-19T00:54:21;38.21;33.90;45.45;;
45478;Laerm;31227;47.986;11.868;2023-02-19T00:56:49;37.69;32.35;44.43;;
45478;Laerm;31227;47.986;11.868;2023-02-19T00:59:15;37.50;32.93;42.41;;
45478;Laerm;31227;47.986;11.868;2023-02-19T01:01:40;37.84;32.93;44.07;;
45478;Laerm;31227;47.986;11.868;2023-02-19T01:04:06;37.78;33.44;43.94;;
45478;Laerm;31227;47.986;11.868;2023-02-19T01:06:31;38.54;32.93;48.77;;
45478;Laerm;31227;47.986;11.868;2023-02-19T01:08:57;37.34;32.93;41.38;;
45478;Laerm;31227;47.986;11.868;2023-02-19T01:11:22;37.31;32.93;40.23;;
45478;Laerm;31227;47.986;11.868;2023-02-19T01:13:47;37.33;32.35;40.33;;
45478;Laerm;31227;47.986;11.868;2023-02-19T01:16:14;37.64;32.93;44.27;;
45478;Laerm;31227;47.986;11.868;2023-02-19T01:18:40;37.46;31.68;42.41;;
45478;Laerm;31227;47.986;11.868;2023-02-19T01:21:06;37.30;32.93;40.43;;
45478;Laerm;31227;47.986;11.868;2023-02-19T01:23:31;37.73;32.93;46.29;;
45478;Laerm;31227;47.986;11.868;2023-02-19T01:25:57;37.84;33.44;57.35;;
45478;Laerm;31227;47.986;11.868;2023-02-19T01:28:22;37.57;32.93;43.04;;
45478;Laerm;31227;47.986;11.868;2023-02-19T01:30:47;37.84;32.35;46.23;;
45478;Laerm;31227;47.986;11.868;2023-02-19T01:33:12;39.63;33.44;59.18;;
45478;Laerm;31227;47.986;11.868;2023-02-19T01:35:38;38.84;32.93;53.27;;
45478;Laerm;31227;47.986;11.868;2023-02-19T01:38:03;38.04;33.44;49.23;;
45478;Laerm;31227;47.986;11.868;2023-02-19T01:40:29;37.48;33.44;42.47;;
45478;Laerm;31227;47.986;11.868;2023-02-19T01:42:54;38.39;33.44;54.27;;
45478;Laerm;31227;47.986;11.868;2023-02-19T01:45:24;40.66;32.93;61.07;;
45478;Laerm;31227;47.986;11.868;2023-02-19T01:47:54;38.15;32.93;51.80;;
45478;Laerm;31227;47.986;11.868;2023-02-19T01:50:21;38.20;32.93;54.10;;
45478;Laerm;31227;47.986;11.868;2023-02-19T01:52:47;38.46;32.93;54.40;;
45478;Laerm;31227;47.986;11.868;2023-02-19T01:55:12;39.34;32.93;59.73;;
45478;Laerm;31227;47.986;11.868;2023-02-19T01:57:39;37.96;33.44;52.78;;
45478;Laerm;31227;47.986;11.868;2023-02-19T02:00:10;38.54;32.93;48.45;;
45478;Laerm;31227;47.986;11.868;2023-02-19T02:02:35;38.52;33.44;55.92;;
45478;Laerm;31227;47.986;11.868;2023-02-19T02:05:03;38.87;32.35;54.59;;
45478;Laerm;31227;47.986;11.868;2023-02-19T02:07:28;39.30;33.44;62.82;;
45478;Laerm;31227;47.986;11.868;2023-02-19T02:10:12;38.73;33.09;51.90;;
45478;Laerm;31227;47.986;11.868;2023-02-19T02:12:47;39.03;32.35;59.08;;
45478;Laerm;31227;47.986;11.868;2023-02-19T02:15:12;39.68;33.90;60.15;;
45478;Laerm;31227;47.986;11.868;2023-02-19T02:18:01;38.02;32.93;51.80;;
45478;Laerm;31227;47.986;11.868;2023-02-19T02:22:59;40.57;32.93;68.20;;
45478;Laerm;31227;47.986;11.868;2023-02-19T02:30:30;39.72;32.93;58.97;;
45478;Laerm;31227;47.986;11.868;2023-02-19T02:33:00;43.74;32.35;71.53;;
45478;Laerm;31227;47.986;11.868;2023-02-19T02:35:32;40.04;32.93;61.71;;
45478;Laerm;31227;47.986;11.868;2023-02-19T02:37:59;42.64;32.93;62.95;;
45478;Laerm;31227;47.986;11.868;2023-02-19T02:40:26;42.34;33.44;69.08;;
45478;Laerm;31227;47.986;11.868;2023-02-19T02:42:51;41.42;32.93;65.55;;
45478;Laerm;31227;47.986;11.868;2023-02-19T02:45:24;40.82;32.35;60.50;;
45478;Laerm;31227;47.986;11.868;2023-02-19T02:47:59;37.98;33.44;49.45;;
45478;Laerm;31227;47.986;11.868;2023-02-19T02:50:33;41.47;32.35;66.23;;
45478;Laerm;31227;47.986;11.868;2023-02-19T02:53:02;43.88;33.90;64.59;;
45478;Laerm;31227;47.986;11.868;2023-02-19T02:55:48;42.75;32.35;67.69;;
45478;Laerm;31227;47.986;11.868;2023-02-19T02:58:16;40.17;33.90;57.60;;
45478;Laerm;31227;47.986;11.868;2023-02-19T03:00:42;38.26;32.35;54.34;;
45478;Laerm;31227;47.986;11.868;2023-02-19T03:03:27;38.77;33.90;60.12;;
45478;Laerm;31227;47.986;11.868;2023-02-19T03:05:54;40.72;32.93;58.74;;
45478;Laerm;31227;47.986;11.868;2023-02-19T03:08:24;41.27;32.93;68.25;;
45478;Laerm;31227;47.986;11.868;2023-02-19T03:13:18;38.96;32.35;55.51;;
45478;Laerm;31227;47.986;11.868;2023-02-19T03:16:05;38.98;32.35;56.08;;
45478;Laerm;31227;47.986;11.868;2023-02-19T03:18:52;37.79;32.93;50.18;;
45478;Laerm;31227;47.986;11.868;2023-02-19T03:21:37;37.69;32.93;53.58;;
45478;Laerm;31227;47.986;11.868;2023-02-19T03:24:03;39.93;32.93;61.30;;
45478;Laerm;31227;47.986;11.868;2023-02-19T03:26:49;42.32;31.68;63.78;;
45478;Laerm;31227;47.986;11.868;2023-02-19T03:29:18;39.96;32.93;57.26;;
45478;Laerm;31227;47.986;11.868;2023-02-19T03:31:48;40.20;33.44;62.30;;
45478;Laerm;31227;47.986;11.868;2023-02-19T03:34:15;40.00;32.35;61.12;;
45478;Laerm;31227;47.986;11.868;2023-02-19T03:36:42;38.47;32.35;58.51;;
45478;Laerm;31227;47.986;11.868;2023-02-19T03:39:09;37.76;33.44;45.89;;
45478;Laerm;31227;47.986;11.868;2023-02-19T03:46:47;46.78;30.89;63.53;;
45478;Laerm;31227;47.986;11.868;2023-02-19T03:51:53;57.04;34.69;80.48;;
45478;Laerm;31227;47.986;11.868;2023-02-19T03:57:21;56.82;42.88;91.11;;
45478;Laerm;31227;47.986;11.868;2023-02-19T06:46:53;40.06;35.94;52.69;;
45478;Laerm;31227;47.986;11.868;2023-02-19T06:49:19;42.90;36.45;60.40;;
45478;Laerm;31227;47.986;11.868;2023-02-19T06:51:44;39.64;35.94;53.53;;
45478;Laerm;31227;47.986;11.868;2023-02-19T06:54:09;39.75;36.20;44.35;;
45478;Laerm;31227;47.986;11.868;2023-02-19T06:56:35;39.79;36.45;46.66;;
45478;Laerm;31227;47.986;11.868;2023-02-19T06:59:02;40.01;36.20;46.10;;
45478;Laerm;31227;47.986;11.868;2023-02-19T07:01:30;39.71;35.36;46.23;;
45478;Laerm;31227;47.986;11.868;2023-02-19T07:03:56;39.80;36.69;45.23;;
45478;Laerm;31227;47.986;11.868;2023-02-19T07:06:22;40.17;35.36;48.64;;
45478;Laerm;31227;47.986;11.868;2023-02-19T07:08:48;39.86;36.20;53.02;;
45478;Laerm;31227;47.986;11.868;2023-02-19T07:11:13;40.27;36.20;56.38;;
45478;Laerm;31227;47.986;11.868;2023-02-19T07:18:48;40.09;36.20;45.97;;
45478;Laerm;31227;47.986;11.868;2023-02-19T07:21:14;39.97;36.45;48.57;;
45478;Laerm;31227;47.986;11.868;2023-02-19T07:23:40;40.08;35.66;58.11;;
45478;Laerm;31227;47.986;11.868;2023-02-19T07:26:12;41.58;36.45;66.71;;
45478;Laerm;31227;47.986;11.868;2023-02-19T07:28:42;39.75;35.94;46.82;;
45478;Laerm;31227;47.986;11.868;2023-02-19T07:31:07;39.83;35.94;48.05;;
45478;Laerm;31227;47.986;11.868;2023-02-19T07:33:32;39.75;35.94;46.18;;
45478;Laerm;31227;47.986;11.868;2023-02-19T07:35:58;40.77;36.45;64.46;;
45478;Laerm;31227;47.986;11.868;2023-02-19T07:38:24;41.77;36.20;60.81;;
45478;Laerm;31227;47.986;11.868;2023-02-19T07:40:59;40.00;34.69;50.98;;
45478;Laerm;31227;47.986;11.868;2023-02-19T07:43:26;40.74;36.20;52.61;;
45478;Laerm;31227;47.986;11.868;2023-02-19T07:45:52;41.07;36.20;61.86;;
45478;Laerm;31227;47.986;11.868;2023-02-19T07:48:17;41.16;36.20;60.43;;
45478;Laerm;31227;47.986;11.868;2023-02-19T07:50:55;40.37;35.66;54.57;;
45478;Laerm;31227;47.986;11.868;2023-02-19T07:53:22;39.62;35.66;53.98;;
45478;Laerm;31227;47.986;11.868;2023-02-19T07:55:47;40.33;36.20;58.17;;
45478;Laerm;31227;47.986;11.868;2023-02-19T07:58:12;40.33;36.20;53.25;;
45478;Laerm;31227;47.986;11.868;2023-02-19T08:00:38;52.20;36.45;75.98;;
45478;Laerm;31227;47.986;11.868;2023-02-19T08:03:03;39.78;35.66;45.66;;
45478;Laerm;31227;47.986;11.868;2023-02-19T08:05:38;39.94;35.66;50.27;;
45478;Laerm;31227;47.986;11.868;2023-02-19T08:08:04;39.91;34.31;54.27;;
45478;Laerm;31227;47.986;11.868;2023-02-19T08:10:30;40.80;36.20;53.69;;
45478;Laerm;31227;47.986;11.868;2023-02-19T08:13:15;40.77;35.94;59.53;;
45478;Laerm;31227;47.986;11.868;2023-02-19T08:15:47;41.00;35.66;60.05;;
45478;Laerm;31227;47.986;11.868;2023-02-19T08:18:14;42.32;34.69;61.75;;
45478;Laerm;31227;47.986;11.868;2023-02-19T08:20:40;41.94;35.94;61.92;;
45478;Laerm;31227;47.986;11.868;2023-02-19T08:23:05;40.09;35.66;51.71;;
45478;Laerm;31227;47.986;11.868;2023-02-19T08:25:31;40.11;35.94;57.45;;
45478;Laerm;31227;47.986;11.868;2023-02-19T08:27:56;40.23;35.04;52.04;;
45478;Laerm;31227;47.986;11.868;2023-02-19T08:30:21;40.84;35.36;61.45;;
45478;Laerm;31227;47.986;11.868;2023-02-19T08:32:47;40.55;35.36;53.78;;
45478;Laerm;31227;47.986;11.868;2023-02-19T08:35:12;42.05;35.94;61.67;;
45478;Laerm;31227;47.986;11.868;2023-02-19T08:37:37;40.48;35.94;55.75;;
45478;Laerm;31227;47.986;11.868;2023-02-19T08:40:02;40.03;35.86;51.97;;
45478;Laerm;31227;47.986;11.868;2023-02-19T08:42:28;40.26;36.20;48.52;;
45478;Laerm;31227;47.986;11.868;2023-02-19T08:44:53;39.57;35.94;43.77;;
45478;Laerm;31227;47.986;11.868;2023-02-19T08:47:18;40.93;35.94;57.59;;
45478;Laerm;31227;47.986;11.868;2023-02-19T08:49:44;40.92;35.36;51.17;;
45478;Laerm;31227;47.986;11.868;2023-02-19T08:52:09;41.03;35.94;60.68;;
45478;Laerm;31227;47.986;11.868;2023-02-19T08:54:34;40.83;36.20;53.48;;
45478;Laerm;31227;47.986;11.868;2023-02-19T08:56:59;40.73;35.94;48.87;;
45478;Laerm;31227;47.986;11.868;2023-02-19T08:59:27;41.20;35.66;57.97;;
45478;Laerm;31227;47.986;11.868;2023-02-19T09:01:52;41.36;35.94;59.27;;
45478;Laerm;31227;47.986;11.868;2023-02-19T09:04:17;40.57;35.04;47.52;;
45478;Laerm;31227;47.986;11.868;2023-02-19T09:06:42;59.79;28.32;77.31;;
45478;Laerm;31227;47.986;11.868;2023-02-19T09:09:07;44.88;35.66;73.61;;
45478;Laerm;31227;47.986;11.868;2023-02-19T09:11:32;52.53;35.04;78.75;;
45478;Laerm;31227;47.986;11.868;2023-02-19T09:13:58;44.38;32.93;66.35;;
45478;Laerm;31227;47.986;11.868;2023-02-19T09:16:23;42.07;35.04;70.22;;
45478;Laerm;31227;47.986;11.868;2023-02-19T09:18:48;40.45;35.66;60.87;;
45478;Laerm;31227;47.986;11.868;2023-02-19T09:21:13;41.09;36.20;53.83;;
45478;Laerm;31227;47.986;11.868;2023-02-19T09:23:39;55.54;35.94;79.36;;
45478;Laerm;31227;47.986;11.868;2023-02-19T09:26:04;47.88;39.34;63.33;;
45478;Laerm;31227;47.986;11.868;2023-02-19T09:28:33;60.47;37.88;72.95;;
45478;Laerm;31227;47.986;11.868;2023-02-19T09:31:05;60.39;45.20;69.46;;
45478;Laerm;31227;47.986;11.868;2023-02-19T09:33:30;58.50;50.24;68.66;;
45478;Laerm;31227;47.986;11.868;2023-02-19T09:35:57;60.03;51.11;71.56;;
45478;Laerm;31227;47.986;11.868;2023-02-19T09:38:22;56.63;51.73;65.57;;
45478;Laerm;31227;47.986;11.868;2023-02-19T09:40:47;56.19;50.90;63.76;;
45478;Laerm;31227;47.986;11.868;2023-02-19T09:43:39;58.24;44.83;78.29;;
45478;Laerm;31227;47.986;11.868;2023-02-19T09:46:10;62.88;46.65;96.80;;
45478;Laerm;31227;47.986;11.868;2023-02-19T09:51:48;49.38;45.20;65.12;;
45478;Laerm;31227;47.986;11.868;2023-02-19T09:54:39;46.44;37.12;61.55;;
45478;Laerm;31227;47.986;11.868;2023-02-19T09:57:10;47.34;40.53;60.27;;
45478;Laerm;31227;47.986;11.868;2023-02-19T09:59:39;45.03;41.46;56.55;;
45478;Laerm;31227;47.986;11.868;2023-02-19T10:02:12;44.91;40.23;59.55;;
45478;Laerm;31227;47.986;11.868;2023-02-19T10:04:40;44.67;41.06;60.03;;
45478;Laerm;31227;47.986;11.868;2023-02-19T10:07:08;45.75;40.33;61.17;;
45478;Laerm;31227;47.986;11.868;2023-02-19T10:09:34;50.91;40.62;64.41;;
45478;Laerm;31227;47.986;11.868;2023-02-19T10:12:00;55.22;36.20;69.20;;
45478;Laerm;31227;47.986;11.868;2023-02-19T10:14:31;54.29;44.80;68.45;;
45478;Laerm;31227;47.986;11.868;2023-02-19T10:16:59;53.27;47.22;63.81;;
45478;Laerm;31227;47.986;11.868;2023-02-19T10:19:25;55.44;39.34;71.13;;
45478;Laerm;31227;47.986;11.868;2023-02-19T10:21:51;55.64;41.38;65.32;;
45478;Laerm;31227;47.986;11.868;2023-02-19T10:24:20;56.07;43.44;62.93;;
45478;Laerm;31227;47.986;11.868;2023-02-19T10:26:46;53.53;41.75;63.04;;
45478;Laerm;31227;47.986;11.868;2023-02-19T10:29:13;51.29;42.47;62.23;;
45478;Laerm;31227;47.986;11.868;2023-02-19T10:31:38;50.66;40.33;62.92;;
45478;Laerm;31227;47.986;11.868;2023-02-19T10:34:03;51.87;43.09;61.59;;
45478;Laerm;31227;47.986;11.868;2023-02-19T10:36:38;52.28;45.14;66.98;;
45478;Laerm;31227;47.986;11.868;2023-02-19T10:39:07;54.83;44.83;64.46;;
45478;Laerm;31227;47.986;11.868;2023-02-19T10:41:42;54.53;47.10;62.22;;
45478;Laerm;31227;47.986;11.868;2023-02-19T10:44:14;53.19;45.66;61.19;;
45478;Laerm;31227;47.986;11.868;2023-02-19T10:46:42;53.21;45.91;63.32;;
45478;Laerm;31227;47.986;11.868;2023-02-19T10:51:39;41.58;36.91;56.42;;
45478;Laerm;31227;47.986;11.868;2023-02-19T10:54:15;41.11;36.45;51.86;;
45478;Laerm;31227;47.986;11.868;2023-02-19T10:56:41;40.72;36.20;50.61;;
45478;Laerm;31227;47.986;11.868;2023-02-19T10:59:39;41.23;36.91;56.28;;
45478;Laerm;31227;47.986;11.868;2023-02-19T11:02:01;41.50;36.45;57.23;;
45478;Laerm;31227;47.986;11.868;2023-02-19T11:04:31;41.16;36.20;56.53;;
45478;Laerm;31227;47.986;11.868;2023-02-19T11:07:08;40.61;36.45;49.64;;
45478;Laerm;31227;47.986;11.868;2023-02-19T11:09:38;41.10;36.20;47.12;;
45478;Laerm;31227;47.986;11.868;2023-02-19T11:12:04;40.80;36.45;54.24;;
45478;Laerm;31227;47.986;11.868;2023-02-19T11:14:30;40.34;36.20;46.50;;
45478;Laerm;31227;47.986;11.868;2023-02-19T11:16:57;41.70;37.52;59.41;;
45478;Laerm;31227;47.986;11.868;2023-02-19T11:21:49;41.57;37.12;60.10;;
45478;Laerm;31227;47.986;11.868;2023-02-19T11:24:22;40.03;36.45;44.11;;
45478;Laerm;31227;47.986;11.868;2023-02-19T11:26:48;40.20;36.69;47.38;;
45478;Laerm;31227;47.986;11.868;2023-02-19T11:29:18;40.90;36.45;49.77;;
45478;Laerm;31227;47.986;11.868;2023-02-19T11:31:46;40.41;36.45;46.07;;
45478;Laerm;31227;47.986;11.868;2023-02-19T11:36:45;40.73;36.69;54.63;;
45478;Laerm;31227;47.986;11.868;2023-02-19T11:47:11;40.74;36.20;52.59;;
45478;Laerm;31227;47.986;11.868;2023-02-19T11:55:06;41.60;36.69;56.62;;
45478;Laerm;31227;47.986;11.868;2023-02-19T12:08:07;41.77;37.12;58.50;;
45478;Laerm;31227;47.986;11.868;2023-02-19T12:13:39;40.99;36.45;46.59;;
45478;Laerm;31227;47.986;11.868;2023-02-19T12:16:12;41.11;36.69;46.47;;
45478;Laerm;31227;47.986;11.868;2023-02-19T12:24:27;41.33;36.45;57.68;;
45478;Laerm;31227;47.986;11.868;2023-02-19T12:30:02;41.42;36.91;47.28;;
45478;Laerm;31227;47.986;11.868;2023-02-19T12:40:07;40.68;36.45;48.10;;
45478;Laerm;31227;47.986;11.868;2023-02-19T12:47:41;41.64;35.94;64.15;;
45478;Laerm;31227;47.986;11.868;2023-02-19T12:50:29;40.97;36.45;56.44;;
45478;Laerm;31227;47.986;11.868;2023-02-19T12:52:58;40.55;36.45;54.99;;
45478;Laerm;31227;47.986;11.868;2023-02-19T12:55:33;40.64;36.69;45.75;;
45478;Laerm;31227;47.986;11.868;2023-02-19T12:58:01;40.62;36.69;45.69;;
45478;Laerm;31227;47.986;11.868;2023-02-19T13:00:37;40.64;36.91;50.71;;
45478;Laerm;31227;47.986;11.868;2023-02-19T13:05:46;41.38;37.32;49.20;;
45478;Laerm;31227;47.986;11.868;2023-02-19T13:08:17;41.86;36.91;57.27;;
45478;Laerm;31227;47.986;11.868;2023-02-19T13:10:46;42.13;36.69;66.01;;
45478;Laerm;31227;47.986;11.868;2023-02-19T13:13:17;41.76;37.12;50.46;;
45478;Laerm;31227;47.986;11.868;2023-02-19T13:15:49;40.96;35.94;52.39;;
45478;Laerm;31227;47.986;11.868;2023-02-19T13:18:27;41.14;36.91;52.33;;
45478;Laerm;31227;47.986;11.868;2023-02-19T13:20:54;41.19;37.12;46.82;;
45478;Laerm;31227;47.986;11.868;2023-02-19T13:23:24;41.04;36.98;48.46;;
45478;Laerm;31227;47.986;11.868;2023-02-19T13:31:28;41.00;36.91;50.93;;
45478;Laerm;31227;47.986;11.868;2023-02-19T13:34:01;41.14;36.45;45.86;;
45478;Laerm;31227;47.986;11.868;2023-02-19T13:36:29;40.38;36.45;48.40;;
45478;Laerm;31227;47.986;11.868;2023-02-19T13:38:55;41.22;36.20;56.89;;
45478;Laerm;31227;47.986;11.868;2023-02-19T13:44:02;41.24;35.94;50.85;;
45478;Laerm;31227;47.986;11.868;2023-02-19T13:46:32;41.24;36.45;52.35;;
45478;Laerm;31227;47.986;11.868;2023-02-19T13:51:46;41.07;36.20;48.81;;
45478;Laerm;31227;47.986;11.868;2023-02-19T13:54:18;40.46;35.94;48.02;;
45478;Laerm;31227;47.986;11.868;2023-02-19T13:56:44;42.17;36.69;58.94;;
45478;Laerm;31227;47.986;11.868;2023-02-19T14:04:20;41.52;36.20;58.07;;
45478;Laerm;31227;47.986;11.868;2023-02-19T14:17:39;40.76;35.66;52.79;;
45478;Laerm;31227;47.986;11.868;2023-02-19T14:28:05;40.61;35.86;52.64;;
45478;Laerm;31227;47.986;11.868;2023-02-19T14:30:50;41.16;36.69;47.48;;
45478;Laerm;31227;47.986;11.868;2023-02-19T14:33:17;40.81;35.66;58.39;;
45478;Laerm;31227;47.986;11.868;2023-02-19T14:35:44;40.31;36.20;44.58;;
45478;Laerm;31227;47.986;11.868;2023-02-19T14:38:14;40.58;35.36;49.51;;
45478;Laerm;31227;47.986;11.868;2023-02-19T14:40:40;40.40;35.66;44.62;;
45478;Laerm;31227;47.986;11.868;2023-02-19T14:43:07;40.52;36.45;50.31;;
45478;Laerm;31227;47.986;11.868;2023-02-19T14:45:46;40.46;35.36;46.30;;
45478;Laerm;31227;47.986;11.868;2023-02-19T14:48:17;39.94;35.94;49.12;;
45478;Laerm;31227;47.986;11.868;2023-02-19T14:50:45;40.57;36.20;56.04;;
45478;Laerm;31227;47.986;11.868;2023-02-19T14:53:12;40.07;35.36;45.97;;
45478;Laerm;31227;47.986;11.868;2023-02-19T14:55:39;40.17;36.20;43.99;;
45478;Laerm;31227;47.986;11.868;2023-02-19T14:58:09;40.68;35.94;53.78;;
45478;Laerm;31227;47.986;11.868;2023-02-19T15:00:37;40.30;35.36;50.40;;
45478;Laerm;31227;47.986;11.868;2023-02-19T15:03:02;39.84;36.20;46.69;;
45478;Laerm;31227;47.986;11.868;2023-02-19T15:07:54;40.27;35.94;46.79;;
45478;Laerm;31227;47.986;11.868;2023-02-19T15:10:21;41.26;36.20;62.63;;
45478;Laerm;31227;47.986;11.868;2023-02-19T15:12:48;39.65;35.94;47.38;;
45478;Laerm;31227;47.986;11.868;2023-02-19T15:15:19;40.13;35.36;54.61;;
45478;Laerm;31227;47.986;11.868;2023-02-19T15:17:45;40.24;35.36;49.32;;
45478;Laerm;31227;47.986;11.868;2023-02-19T15:20:14;42.11;35.94;66.47;;
45478;Laerm;31227;47.986;11.868;2023-02-19T15:22:40;40.89;35.36;54.76;;
45478;Laerm;31227;47.986;11.868;2023-02-19T15:25:05;40.74;35.94;56.29;;
45478;Laerm;31227;47.986;11.868;2023-02-19T15:27:31;40.22;36.20;44.51;;
45478;Laerm;31227;47.986;11.868;2023-02-19T15:30:01;40.88;36.45;52.60;;
45478;Laerm;31227;47.986;11.868;2023-02-19T15:32:26;43.83;35.94;69.37;;
45478;Laerm;31227;47.986;11.868;2023-02-19T15:34:53;40.27;35.36;46.10;;
45478;Laerm;31227;47.986;11.868;2023-02-19T15:37:18;41.54;35.66;61.82;;
45478;Laerm;31227;47.986;11.868;2023-02-19T15:39:44;40.41;35.66;52.50;;
45478;Laerm;31227;47.986;11.868;2023-02-19T15:42:14;40.46;35.04;51.06;;
45478;Laerm;31227;47.986;11.868;2023-02-19T15:52:23;40.26;35.94;50.65;;
45478;Laerm;31227;47.986;11.868;2023-02-19T15:57:18;39.51;35.66;50.07;;
45478;Laerm;31227;47.986;11.868;2023-02-19T15:59:46;40.12;35.66;44.27;;
45478;Laerm;31227;47.986;11.868;2023-02-19T16:02:13;40.16;35.66;47.55;;
45478;Laerm;31227;47.986;11.868;2023-02-19T16:04:40;39.92;35.94;43.90;;
45478;Laerm;31227;47.986;11.868;2023-02-19T16:07:19;40.40;35.66;46.23;;
45478;Laerm;31227;47.986;11.868;2023-02-19T16:09:46;39.45;35.31;44.43;;
45478;Laerm;31227;47.986;11.868;2023-02-19T16:12:22;39.99;35.94;44.97;;
45478;Laerm;31227;47.986;11.868;2023-02-19T16:14:47;39.79;35.94;44.73;;
45478;Laerm;31227;47.986;11.868;2023-02-19T16:17:15;40.10;36.20;55.68;;
45478;Laerm;31227;47.986;11.868;2023-02-19T16:22:07;39.73;35.04;46.91;;
45478;Laerm;31227;47.986;11.868;2023-02-19T16:24:34;39.85;35.94;45.30;;
45478;Laerm;31227;47.986;11.868;2023-02-19T16:27:00;39.47;35.04;47.34;;
45478;Laerm;31227;47.986;11.868;2023-02-19T16:29:26;40.23;35.66;47.16;;
45478;Laerm;31227;47.986;11.868;2023-02-19T16:32:14;39.80;35.36;46.18;;
45478;Laerm;31227;47.986;11.868;2023-02-19T16:34:41;40.02;35.94;46.28;;
45478;Laerm;31227;47.986;11.868;2023-02-19T16:43:37;39.64;35.66;46.64;;
45478;Laerm;31227;47.986;11.868;2023-02-19T16:49:32;39.76;35.66;46.38;;
45478;Laerm;31227;47.986;11.868;2023-02-19T16:52:18;40.18;34.69;43.99;;
45478;Laerm;31227;47.986;11.868;2023-02-19T16:58:22;40.40;34.69;51.69;;
45478;Laerm;31227;47.986;11.868;2023-02-19T17:00:58;39.97;35.66;46.78;;
45478;Laerm;31227;47.986;11.868;2023-02-19T17:03:38;40.66;36.69;44.54;;
45478;Laerm;31227;47.986;11.868;2023-02-19T17:08:54;39.84;35.66;43.72;;
45478;Laerm;31227;47.986;11.868;2023-02-19T17:11:39;39.72;35.36;44.43;;
45478;Laerm;31227;47.986;11.868;2023-02-19T17:16:58;40.01;35.36;48.16;;
45478;Laerm;31227;47.986;11.868;2023-02-19T17:19:23;39.56;35.36;45.83;;
45478;Laerm;31227;47.986;11.868;2023-02-19T17:21:49;39.52;36.20;43.49;;
45478;Laerm;31227;47.986;11.868;2023-02-19T17:24:37;39.80;35.66;45.11;;
45478;Laerm;31227;47.986;11.868;2023-02-19T17:29:51;39.01;34.69;43.81;;
45478;Laerm;31227;47.986;11.868;2023-02-19T17:32:19;39.13;35.04;44.80;;
45478;Laerm;31227;47.986;11.868;2023-02-19T17:34:46;39.17;33.90;43.09;;
45478;Laerm;31227;47.986;11.868;2023-02-19T17:37:13;39.59;35.66;44.80;;
45478;Laerm;31227;47.986;11.868;2023-02-19T17:40:00;39.31;34.69;43.58;;
45478;Laerm;31227;47.986;11.868;2023-02-19T17:42:37;39.40;35.04;44.62;;
45478;Laerm;31227;47.986;11.868;2023-02-19T17:45:28;39.25;35.36;44.47;;
45478;Laerm;31227;47.986;11.868;2023-02-19T17:47:59;39.52;34.31;45.07;;
45478;Laerm;31227;47.986;11.868;2023-02-19T17:50:27;39.60;35.04;44.27;;
45478;Laerm;31227;47.986;11.868;2023-02-19T17:52:53;39.32;34.69;44.35;;
45478;Laerm;31227;47.986;11.868;2023-02-19T17:55:21;39.04;33.90;44.07;;
45478;Laerm;31227;47.986;11.868;2023-02-19T17:57:54;39.64;35.36;44.31;;
45478;Laerm;31227;47.986;11.868;2023-02-19T18:00:26;39.34;35.31;44.69;;
45478;Laerm;31227;47.986;11.868;2023-02-19T18:02:52;39.50;34.69;49.52;;
45478;Laerm;31227;47.986;11.868;2023-02-19T18:05:18;39.34;35.04;44.73;;
45478;Laerm;31227;47.986;11.868;2023-02-19T18:08:20;39.09;35.04;52.50;;
45478;Laerm;31227;47.986;11.868;2023-02-19T18:10:48;39.42;34.69;45.17;;
45478;Laerm;31227;47.986;11.868;2023-02-19T18:13:13;39.28;35.36;44.15;;
45478;Laerm;31227;47.986;11.868;2023-02-19T18:15:39;39.57;35.36;49.13;;
45478;Laerm;31227;47.986;11.868;2023-02-19T18:18:07;39.95;35.36;46.15;;
45478;Laerm;31227;47.986;11.868;2023-02-19T18:20:34;39.22;34.69;44.19;;
45478;Laerm;31227;47.986;11.868;2023-02-19T18:22:59;38.68;34.31;42.71;;
45478;Laerm;31227;47.986;11.868;2023-02-19T18:25:24;39.30;35.04;44.20;;
45478;Laerm;31227;47.986;11.868;2023-02-19T18:27:50;38.89;35.36;42.98;;
45478;Laerm;31227;47.986;11.868;2023-02-19T18:30:21;39.46;35.04;45.17;;
45478;Laerm;31227;47.986;11.868;2023-02-19T18:32:47;39.13;35.36;43.90;;
45478;Laerm;31227;47.986;11.868;2023-02-19T18:35:13;39.42;35.36;44.23;;
45478;Laerm;31227;47.986;11.868;2023-02-19T18:37:38;39.49;34.69;45.42;;
45478;Laerm;31227;47.986;11.868;2023-02-19T18:40:03;39.15;35.36;44.65;;
45478;Laerm;31227;47.986;11.868;2023-02-19T18:42:29;39.13;35.36;44.51;;
45478;Laerm;31227;47.986;11.868;2023-02-19T18:44:54;39.68;35.36;50.69;;
45478;Laerm;31227;47.986;11.868;2023-02-19T18:47:20;39.38;35.04;49.65;;
45478;Laerm;31227;47.986;11.868;2023-02-19T18:49:49;39.33;35.04;44.07;;
45478;Laerm;31227;47.986;11.868;2023-02-19T18:52:15;39.50;35.04;44.94;;
45478;Laerm;31227;47.986;11.868;2023-02-19T18:54:44;39.60;35.36;45.94;;
45478;Laerm;31227;47.986;11.868;2023-02-19T18:57:09;38.84;35.04;44.03;;
45478;Laerm;31227;47.986;11.868;2023-02-19T18:59:35;39.30;35.04;46.05;;
45478;Laerm;31227;47.986;11.868;2023-02-19T19:02:00;39.22;34.69;45.27;;
45478;Laerm;31227;47.986;11.868;2023-02-19T19:04:25;39.18;35.04;49.56;;
45478;Laerm;31227;47.986;11.868;2023-02-19T19:06:50;38.93;34.69;50.14;;